Time;durP1;ratioP1;P1;durP2;ratioP2;P2;SDS_P1;SDS_P2;PMS_P1;PMS_P2;Temp;Humidity;BMP_temperature;BMP_pressure;BME280_temperature;BME280_humidity;BME280_pressure;Samples;Min_cycle;Max_cycle;Signal;HPM_P1;HPM_P2
2022/05/12 00:00:23;;;;;;;1.37;0.53;;;22.70;99.90;;;;;;5058013;28;20438;-83
2022/05/12 00:02:52;;;;;;;1.40;1.27;;;22.70;99.90;;;;;;5058404;28;20434;-83
2022/05/12 00:05:21;;;;;;;1.00;0.50;;;22.60;99.90;;;;;;5058788;28;20478;-83
2022/05/12 00:07:50;;;;;;;0.70;0.20;;;22.60;99.90;;;;;;5058491;28;20447;-82
2022/05/12 00:10:20;;;;;;;1.30;1.17;;;22.60;99.90;;;;;;5058129;28;20475;-81
2022/05/12 00:12:48;;;;;;;1.27;0.47;;;22.50;99.90;;;;;;5059955;28;20427;-83
2022/05/12 00:15:20;;;;;;;0.70;0.20;;;22.50;99.90;;;;;;5077889;28;20454;-80
2022/05/12 00:17:49;;;;;;;0.90;0.30;;;22.50;99.90;;;;;;5077643;28;20441;-81
2022/05/12 00:20:19;;;;;;;1.13;0.93;;;22.50;99.90;;;;;;5075640;28;20478;-81
2022/05/12 00:22:47;;;;;;;1.57;0.30;;;22.50;99.90;;;;;;5076028;28;20485;-81
2022/05/12 00:25:17;;;;;;;0.80;0.40;;;22.40;99.90;;;;;;5091347;28;20492;-82
2022/05/12 00:27:45;;;;;;;1.63;1.50;;;22.30;99.90;;;;;;5094517;28;20533;-81
2022/05/12 00:30:14;;;;;;;0.80;0.40;;;22.30;99.90;;;;;;5075514;28;20485;-81
2022/05/12 00:32:46;;;;;;;1.10;0.83;;;22.30;99.90;;;;;;5073087;28;20443;-80
2022/05/12 00:35:15;;;;;;;0.97;0.60;;;22.20;99.90;;;;;;5073648;28;20462;-81
2022/05/12 00:37:43;;;;;;;0.70;0.30;;;22.20;99.90;;;;;;5066757;28;20525;-82
2022/05/12 00:40:14;;;;;;;0.80;0.43;;;22.10;99.90;;;;;;5068821;28;20484;-82
2022/05/12 00:42:54;;;;;;;25.33;1.67;;;22.10;99.90;;;;;;5068637;28;20534;-81
2022/05/12 00:45:27;;;;;;;0.80;0.30;;;22.10;99.90;;;;;;5046265;28;20466;-82
2022/05/12 00:47:57;;;;;;;1.50;1.40;;;22.00;99.90;;;;;;5052455;28;20446;-82
2022/05/12 00:50:30;;;;;;;3.03;1.53;;;22.00;99.90;;;;;;5052668;28;20467;-81
2022/05/12 00:52:59;;;;;;;0.80;0.33;;;21.90;99.90;;;;;;5052858;28;20451;-81
2022/05/12 00:55:33;;;;;;;1.50;1.23;;;21.90;99.90;;;;;;5053232;28;20469;-81
2022/05/12 00:58:05;;;;;;;0.80;0.40;;;21.90;99.90;;;;;;5062140;28;20449;-80
2022/05/12 01:00:33;;;;;;;1.33;0.37;;;;;;;;;;5086948;28;20526;-82
2022/05/12 01:03:11;;;;;;;0.90;0.40;;;21.80;99.90;;;;;;5083440;28;20524;-83
2022/05/12 01:05:40;;;;;;;0.93;0.60;;;21.80;99.90;;;;;;5091272;28;20486;-83
2022/05/12 01:08:10;;;;;;;0.80;0.40;;;21.70;99.90;;;;;;5079342;28;20529;-82
2022/05/12 01:10:39;;;;;;;0.70;0.10;;;;;;;;;;5069100;28;20558;-81
2022/05/12 01:13:08;;;;;;;0.90;0.20;;;21.70;99.90;;;;;;5071325;28;20459;-82
2022/05/12 01:15:36;;;;;;;1.00;0.60;;;21.70;99.90;;;;;;5072606;28;20948;-83
2022/05/12 01:18:10;;;;;;;0.80;0.30;;;21.50;99.90;;;;;;5071628;28;20492;-82
2022/05/12 01:20:39;;;;;;;0.80;0.40;;;21.50;99.90;;;;;;5067973;28;20445;-83
2022/05/12 01:23:20;;;;;;;0.70;0.10;;;21.40;99.90;;;;;;5087443;28;20475;-84
2022/05/12 01:25:49;;;;;;;0.70;0.30;;;;;;;;;;5086209;28;20471;-81
2022/05/12 01:28:17;;;;;;;1.57;0.87;;;21.30;99.90;;;;;;5069904;28;20857;-82
2022/05/12 01:30:45;;;;;;;0.90;0.40;;;21.20;99.90;;;;;;5057379;28;20473;-82
2022/05/12 01:33:13;;;;;;;0.70;0.20;;;21.20;99.90;;;;;;5069804;28;20456;-82
2022/05/12 01:35:41;;;;;;;0.70;0.20;;;21.20;99.90;;;;;;5070413;28;20476;-82
2022/05/12 01:38:08;;;;;;;0.87;0.60;;;21.10;99.90;;;;;;5071134;28;21010;-82
2022/05/12 01:40:38;;;;;;;0.70;0.20;;;21.00;99.90;;;;;;5060128;28;20509;-82
2022/05/12 01:43:06;;;;;;;0.70;0.20;;;21.00;99.90;;;;;;5055959;28;20548;-83
2022/05/12 01:45:34;;;;;;;1.00;0.37;;;21.00;99.90;;;;;;5080424;28;20475;-82
2022/05/12 01:48:03;;;;;;;0.97;0.50;;;;;;;;;;5092770;28;20455;-82
2022/05/12 01:50:31;;;;;;;0.90;0.33;;;21.00;99.90;;;;;;5082901;28;20534;-82
2022/05/12 01:52:59;;;;;;;0.70;0.20;;;21.00;99.90;;;;;;5073928;28;20450;-83
2022/05/12 01:55:27;;;;;;;0.70;0.20;;;21.00;99.90;;;;;;5076076;28;20526;-82
2022/05/12 01:57:57;;;;;;;0.70;0.17;;;21.10;99.90;;;;;;5074238;28;20481;-81
2022/05/12 02:00:28;;;;;;;1.20;0.50;;;21.00;99.90;;;;;;5066905;28;20481;-82
2022/05/12 02:02:57;;;;;;;0.80;0.30;;;21.00;99.90;;;;;;5044389;28;20478;-82
2022/05/12 02:05:25;;;;;;;0.70;0.20;;;20.90;99.90;;;;;;5042172;28;20546;-81
2022/05/12 02:07:53;;;;;;;0.80;0.30;;;20.90;99.90;;;;;;5049293;28;20448;-80
2022/05/12 02:10:25;;;;;;;0.70;0.20;;;20.90;99.90;;;;;;5061599;28;20565;-81
2022/05/12 02:12:54;;;;;;;0.70;0.20;;;20.80;99.90;;;;;;5074466;28;20469;-81
2022/05/12 02:15:24;;;;;;;0.70;0.20;;;20.80;99.90;;;;;;5072609;28;20442;-82
2022/05/12 02:17:52;;;;;;;0.70;0.27;;;20.70;99.90;;;;;;5074583;28;20464;-80
2022/05/12 02:20:23;;;;;;;0.70;0.10;;;20.60;99.90;;;;;;5072743;28;20783;-81
2022/05/12 02:22:51;;;;;;;0.70;0.10;;;20.60;99.90;;;;;;5068165;28;20429;-80
2022/05/12 02:25:19;;;;;;;1.37;0.93;;;20.70;99.90;;;;;;5064212;28;20510;-81
2022/05/12 02:27:47;;;;;;;0.70;0.23;;;20.60;99.90;;;;;;5069971;28;20468;-81
2022/05/12 02:30:21;;;;;;;0.80;0.30;;;20.50;99.90;;;;;;5069259;28;20475;-81
2022/05/12 02:32:50;;;;;;;0.70;0.20;;;20.50;99.90;;;;;;5067960;28;20524;-81
2022/05/12 02:35:19;;;;;;;0.70;0.20;;;20.60;99.90;;;;;;5069393;28;20457;-82
2022/05/12 02:37:47;;;;;;;0.70;0.10;;;20.60;99.90;;;;;;5067891;28;20456;-80
2022/05/12 02:40:18;;;;;;;0.70;0.10;;;20.60;99.90;;;;;;5068750;28;20469;-82
2022/05/12 02:42:46;;;;;;;0.70;0.10;;;20.70;99.90;;;;;;5069828;28;20460;-82
2022/05/12 02:45:15;;;;;;;0.70;0.20;;;20.70;99.90;;;;;;5073345;28;20463;-81
2022/05/12 02:47:44;;;;;;;0.70;0.10;;;20.70;99.90;;;;;;5072472;28;20509;-81
2022/05/12 02:50:15;;;;;;;0.70;0.20;;;20.80;99.90;;;;;;5073056;28;20488;-80
2022/05/12 02:52:43;;;;;;;0.70;0.20;;;20.80;99.90;;;;;;5072296;28;21036;-80
2022/05/12 02:55:12;;;;;;;0.70;0.10;;;20.80;99.90;;;;;;5060356;28;20452;-82
2022/05/12 02:57:43;;;;;;;0.70;0.20;;;;;;;;;;5059676;28;21167;-82
2022/05/12 03:00:17;;;;;;;0.70;0.20;;;20.80;99.90;;;;;;5062709;28;20463;-81
2022/05/12 03:02:46;;;;;;;0.70;0.20;;;20.70;99.90;;;;;;5075861;28;20472;-81
2022/05/12 03:05:16;;;;;;;0.70;0.17;;;20.70;99.90;;;;;;5073395;28;20483;-81
2022/05/12 03:07:44;;;;;;;0.70;0.10;;;20.70;99.90;;;;;;5062297;28;20530;-81
2022/05/12 03:10:15;;;;;;;0.70;0.10;;;20.70;99.90;;;;;;5060226;28;21022;-82
2022/05/12 03:12:43;;;;;;;0.70;0.20;;;20.60;99.90;;;;;;5060221;28;20438;-81
2022/05/12 03:15:12;;;;;;;1.13;0.63;;;20.60;99.90;;;;;;5060478;28;20930;-81
2022/05/12 03:17:42;;;;;;;0.70;0.30;;;20.60;99.90;;;;;;5059612;28;20494;-80
2022/05/12 03:20:13;;;;;;;0.70;0.10;;;20.50;99.90;;;;;;5059896;28;20500;-80
2022/05/12 03:22:43;;;;;;;0.70;0.10;;;;;;;;;;5059455;28;20850;-81
2022/05/12 03:25:13;;;;;;;0.70;0.20;;;20.50;99.90;;;;;;5059585;28;20469;-81
2022/05/12 03:27:41;;;;;;;0.70;0.20;;;20.40;99.90;;;;;;5059581;28;20546;-81
2022/05/12 03:30:14;;;;;;;0.70;0.10;;;20.40;99.90;;;;;;5060532;28;20475;-81
2022/05/12 03:32:42;;;;;;;1.53;1.23;;;20.40;99.90;;;;;;5060802;28;20445;-83
2022/05/12 03:35:11;;;;;;;0.70;0.10;;;20.30;99.90;;;;;;5061504;28;20932;-83
2022/05/12 03:37:43;;;;;;;0.70;0.13;;;;;;;;;;5062102;28;20437;-84
2022/05/12 03:40:13;;;;;;;0.70;0.10;;;20.30;99.90;;;;;;5060183;28;20505;-83
2022/05/12 03:42:42;;;;;;;0.70;0.10;;;20.30;99.90;;;;;;5059240;28;20471;-83
2022/05/12 03:45:10;;;;;;;0.70;0.10;;;20.30;99.90;;;;;;5054345;28;20454;-84
2022/05/12 03:47:41;;;;;;;0.73;0.30;;;20.30;99.90;;;;;;5058302;28;20478;-82
2022/05/12 03:50:12;;;;;;;0.70;0.20;;;20.30;99.90;;;;;;5058491;28;20512;-82
2022/05/12 03:52:47;;;;;;;0.70;0.10;;;20.30;99.90;;;;;;5070036;28;20458;-83
2022/05/12 03:55:17;;;;;;;0.70;0.20;;;20.20;99.90;;;;;;5070795;28;20456;-84
2022/05/12 03:57:46;;;;;;;0.70;0.20;;;20.20;99.90;;;;;;5062103;28;20838;-83
2022/05/12 04:00:18;;;;;;;0.70;0.20;;;20.10;99.90;;;;;;5062874;28;20499;-80
2022/05/12 04:02:46;;;;;;;0.70;0.10;;;;;;;;;;5060114;28;20464;-82
2022/05/12 04:05:15;;;;;;;0.70;0.20;;;;;;;;;;5059668;28;20457;-80
2022/05/12 04:07:51;;;;;;;0.70;0.10;;;20.00;99.90;;;;;;5052214;28;20507;-80
2022/05/12 04:10:21;;;;;;;0.70;0.20;;;20.00;99.90;;;;;;5042005;28;21113;-72
2022/05/12 04:12:49;;;;;;;0.70;0.17;;;20.00;99.90;;;;;;5067432;28;20439;-70
2022/05/12 04:15:17;;;;;;;0.70;0.20;;;20.00;99.90;;;;;;5072625;28;20444;-70
2022/05/12 04:17:46;;;;;;;0.70;0.10;;;20.00;99.90;;;;;;5064276;28;20443;-70
2022/05/12 04:20:14;;;;;;;0.70;0.20;;;20.00;99.90;;;;;;5053074;28;20465;-71
2022/05/12 04:22:43;;;;;;;0.70;0.10;;;20.00;99.90;;;;;;5052890;28;20440;-71
2022/05/12 04:25:13;;;;;;;0.70;0.20;;;20.00;99.90;;;;;;5052344;28;20452;-71
2022/05/12 04:27:42;;;;;;;0.60;0.10;;;20.10;99.90;;;;;;5051238;28;20464;-70
2022/05/12 04:30:12;;;;;;;0.70;0.10;;;20.20;99.90;;;;;;5051659;28;20462;-69
2022/05/12 04:32:40;;;;;;;0.67;0.20;;;20.30;99.90;;;;;;5051563;28;20973;-72
2022/05/12 04:35:12;;;;;;;0.70;0.10;;;20.30;99.90;;;;;;5059800;28;20447;-72
2022/05/12 04:37:44;;;;;;;0.70;0.10;;;20.30;99.90;;;;;;5063451;28;20526;-71
2022/05/12 04:40:17;;;;;;;0.70;0.10;;;20.40;99.90;;;;;;5051620;28;20472;-72
2022/05/12 04:42:47;;;;;;;0.70;0.10;;;20.40;99.90;;;;;;5052358;28;20946;-72
2022/05/12 04:45:17;;;;;;;0.70;0.10;;;20.50;99.90;;;;;;5060242;28;20955;-72
2022/05/12 04:47:46;;;;;;;0.70;0.20;;;20.50;99.90;;;;;;5057028;28;20491;-72
2022/05/12 04:50:18;;;;;;;0.70;0.10;;;20.50;99.90;;;;;;5060616;28;20471;-71
2022/05/12 04:52:47;;;;;;;0.70;0.10;;;20.50;99.90;;;;;;5053371;28;20494;-71
2022/05/12 04:55:18;;;;;;;0.70;0.10;;;20.60;99.90;;;;;;5051690;28;20763;-70
2022/05/12 04:57:49;;;;;;;0.70;0.20;;;20.60;99.90;;;;;;5050594;28;21082;-73
2022/05/12 05:00:21;;;;;;;0.70;0.10;;;20.60;99.90;;;;;;5051946;28;20476;-72
2022/05/12 05:02:49;;;;;;;0.70;0.10;;;20.60;99.90;;;;;;5052145;28;20452;-73
2022/05/12 05:05:18;;;;;;;0.70;0.10;;;20.60;99.90;;;;;;5051508;28;20492;-72
2022/05/12 05:07:46;;;;;;;0.70;0.10;;;20.60;99.90;;;;;;5042688;28;20580;-70
2022/05/12 05:10:16;;;;;;;0.70;0.13;;;20.50;99.90;;;;;;5036525;28;20967;-72
2022/05/12 05:12:45;;;;;;;0.70;0.20;;;20.40;99.90;;;;;;5060078;28;20446;-72
2022/05/12 05:15:14;;;;;;;0.70;0.20;;;20.50;99.90;;;;;;5057748;28;20543;-71
2022/05/12 05:17:44;;;;;;;0.63;0.10;;;20.50;99.90;;;;;;5060567;28;20444;-72
2022/05/12 05:20:14;;;;;;;0.70;0.10;;;20.50;99.90;;;;;;5058916;28;20478;-74
2022/05/12 05:22:42;;;;;;;0.70;0.20;;;21.40;99.90;;;;;;5062027;28;20445;-72
2022/05/12 05:25:11;;;;;;;0.70;0.20;;;20.50;99.90;;;;;;5061700;28;20459;-73
2022/05/12 05:27:41;;;;;;;0.70;0.13;;;20.50;99.90;;;;;;5058806;28;20558;-72
2022/05/12 05:30:12;;;;;;;0.70;0.20;;;20.50;99.90;;;;;;5051472;28;20468;-72
2022/05/12 05:32:40;;;;;;;0.70;0.20;;;20.50;99.90;;;;;;5059087;28;20821;-72
2022/05/12 05:35:09;;;;;;;0.60;0.20;;;20.50;99.90;;;;;;5051399;28;20812;-73
2022/05/12 05:37:38;;;;;;;0.70;0.20;;;20.50;99.90;;;;;;5047706;28;20556;-73
2022/05/12 05:40:07;;;;;;;0.70;0.10;;;20.50;99.90;;;;;;5058467;28;20498;-72
2022/05/12 05:42:38;;;;;;;0.70;0.10;;;20.50;99.90;;;;;;5066597;28;20513;-74
2022/05/12 05:45:11;;;;;;;0.70;0.20;;;20.50;99.90;;;;;;5058611;28;20459;-75
2022/05/12 05:47:40;;;;;;;0.70;0.20;;;20.50;99.90;;;;;;5050413;28;20639;-72
2022/05/12 05:50:09;;;;;;;0.70;0.10;;;20.50;99.90;;;;;;5051826;28;20477;-73
2022/05/12 05:55:23;;;;;;;0.70;0.10;;;20.50;99.90;;;;;;5038754;28;20480;-73
2022/05/12 05:57:50;;;;;;;0.70;0.20;;;20.50;99.90;;;;;;5031169;28;20812;-74
2022/05/12 06:00:21;;;;;;;0.67;0.20;;;20.30;99.90;;;;;;5031752;28;20539;-73
2022/05/12 06:02:49;;;;;;;0.70;0.20;;;20.30;99.90;;;;;;5044378;28;20459;-71
2022/05/12 06:05:18;;;;;;;0.70;0.20;;;20.20;99.90;;;;;;5045088;28;20453;-72
2022/05/12 06:07:46;;;;;;;0.70;0.10;;;20.10;99.90;;;;;;5064433;28;20482;-73
2022/05/12 06:10:14;;;;;;;0.67;0.10;;;20.10;99.90;;;;;;5071348;28;20472;-73
2022/05/12 06:12:42;;;;;;;0.70;0.20;;;19.90;99.90;;;;;;5058000;28;20552;-71
2022/05/12 06:15:11;;;;;;;0.70;0.20;;;20.00;99.90;;;;;;5049398;28;20567;-73
2022/05/12 06:17:42;;;;;;;0.67;0.20;;;;;;;;;;5054094;28;20922;-71
2022/05/12 06:20:11;;;;;;;0.70;0.17;;;20.00;99.90;;;;;;5053378;28;20475;-72
2022/05/12 06:22:40;;;;;;;0.70;0.20;;;20.00;99.90;;;;;;5054612;28;20475;-72
2022/05/12 06:25:10;;;;;;;0.70;0.10;;;20.00;99.90;;;;;;5061146;28;20452;-80
2022/05/12 06:27:38;;;;;;;0.80;0.60;;;20.00;99.90;;;;;;5087680;28;20423;-81
2022/05/12 06:30:11;;;;;;;0.70;0.10;;;19.90;99.90;;;;;;5047705;28;20541;-81
2022/05/12 06:32:43;;;;;;;0.70;0.20;;;19.90;99.90;;;;;;5043162;28;20469;-80
2022/05/12 06:35:13;;;;;;;0.70;0.20;;;19.90;99.90;;;;;;5056371;28;20452;-81
2022/05/12 06:37:41;;;;;;;2.90;2.73;;;20.00;99.90;;;;;;5067695;28;20485;-81
2022/05/12 06:40:11;;;;;;;0.70;0.10;;;19.90;99.90;;;;;;5065965;28;20545;-81
2022/05/12 06:42:41;;;;;;;0.70;0.20;;;19.70;99.90;;;;;;5067860;28;20440;-81
2022/05/12 06:45:11;;;;;;;0.67;0.10;;;19.70;99.90;;;;;;5070323;28;20460;-81
2022/05/12 06:47:45;;;;;;;0.80;0.40;;;19.60;99.90;;;;;;5064313;28;20455;-82
2022/05/12 06:50:14;;;;;;;0.70;0.20;;;19.70;99.90;;;;;;5064368;28;20538;-80
2022/05/12 06:52:43;;;;;;;0.70;0.20;;;19.80;99.90;;;;;;5065121;28;20480;-81
2022/05/12 06:55:11;;;;;;;0.70;0.20;;;;;;;;;;5067622;28;20476;-81
2022/05/12 06:57:40;;;;;;;0.70;0.10;;;20.00;99.90;;;;;;5050944;28;20495;-81
2022/05/12 07:00:09;;;;;;;0.63;0.10;;;20.10;99.90;;;;;;5048168;28;20475;-80
2022/05/12 07:02:39;;;;;;;0.70;0.10;;;20.10;99.90;;;;;;5048183;28;20477;-79
2022/05/12 07:05:09;;;;;;;0.70;0.20;;;20.10;99.90;;;;;;5051327;28;20502;-80
2022/05/12 07:07:37;;;;;;;0.70;0.10;;;20.10;99.90;;;;;;5052154;28;20518;-82
2022/05/12 07:10:06;;;;;;;0.70;0.23;;;19.80;99.90;;;;;;5052827;28;20513;-82
2022/05/12 07:12:35;;;;;;;0.70;0.10;;;;;;;;;;5050837;28;20442;-81
2022/05/12 07:15:04;;;;;;;0.70;0.20;;;19.60;99.90;;;;;;5049491;28;20537;-81
2022/05/12 07:17:37;;;;;;;0.70;0.20;;;19.70;99.90;;;;;;5045381;28;20488;-82
2022/05/12 07:28:25;;;;;;;0.70;0.10;;;;;;;;;;5047634;28;20505;-82
2022/05/12 07:31:03;;;;;;;0.67;0.10;;;20.20;99.90;;;;;;5052749;28;20445;-80
2022/05/12 07:33:38;;;;;;;0.63;0.20;;;20.20;99.90;;;;;;5049202;28;20457;-81
2022/05/12 07:36:09;;;;;;;0.70;0.17;;;20.20;99.90;;;;;;5045443;28;20529;-83
2022/05/12 07:38:39;;;;;;;0.60;0.10;;;20.30;99.90;;;;;;5049896;28;20434;-80
2022/05/12 07:41:09;;;;;;;0.70;0.20;;;20.10;99.90;;;;;;5050977;28;20453;-80
2022/05/12 07:43:38;;;;;;;0.70;0.10;;;20.10;99.90;;;;;;5050339;28;20454;-79
2022/05/12 07:46:07;;;;;;;0.70;0.10;;;20.20;99.90;;;;;;5047172;28;20451;-80
2022/05/12 07:48:35;;;;;;;0.70;0.20;;;20.40;99.90;;;;;;5049166;28;20473;-80
2022/05/12 07:51:04;;;;;;;0.80;0.50;;;20.40;99.90;;;;;;5044343;28;20454;-80
2022/05/12 07:53:32;;;;;;;0.80;0.50;;;20.50;99.90;;;;;;5044832;28;20480;-81
2022/05/12 07:56:02;;;;;;;0.67;0.13;;;20.50;99.90;;;;;;5040555;28;20453;-80
2022/05/12 07:58:29;;;;;;;0.70;0.10;;;20.40;99.90;;;;;;5039345;28;20467;-81
2022/05/12 08:00:58;;;;;;;0.70;0.20;;;20.40;99.90;;;;;;5052165;28;20440;-81
2022/05/12 08:03:26;;;;;;;0.70;0.10;;;20.40;99.90;;;;;;5050877;28;20488;-82
2022/05/12 08:05:55;;;;;;;0.70;0.20;;;20.40;99.90;;;;;;5043019;28;20454;-81
2022/05/12 08:08:22;;;;;;;0.70;0.13;;;20.50;99.90;;;;;;5046664;28;20449;-81
2022/05/12 08:10:53;;;;;;;0.90;0.27;;;20.50;99.90;;;;;;5052781;28;20515;-81
2022/05/12 08:13:22;;;;;;;8.03;0.97;;;;;;;;;;5049500;28;20457;-79
2022/05/12 08:15:53;;;;;;;0.70;0.10;;;20.20;99.90;;;;;;5067027;28;20436;-81
2022/05/12 08:18:23;;;;;;;0.70;0.20;;;20.20;99.90;;;;;;5063995;28;20965;-80
2022/05/12 08:20:52;;;;;;;0.70;0.10;;;20.20;99.90;;;;;;5064374;28;20449;-81
2022/05/12 08:23:21;;;;;;;0.70;0.20;;;20.10;99.90;;;;;;5063222;28;20449;-79
2022/05/12 08:25:50;;;;;;;1.13;0.47;;;20.10;99.90;;;;;;5063673;28;20469;-82
2022/05/12 08:28:26;;;;;;;0.60;0.10;;;20.20;99.90;;;;;;5042501;28;20456;-81
2022/05/12 08:30:56;;;;;;;0.97;0.60;;;20.10;99.90;;;;;;5040903;28;20458;-79
2022/05/12 08:33:24;;;;;;;0.80;0.43;;;20.10;99.90;;;;;;5044304;28;20513;-81
2022/05/12 08:35:52;;;;;;;0.90;0.47;;;20.00;99.90;;;;;;5043967;28;20446;-79
2022/05/12 08:38:21;;;;;;;0.70;0.17;;;19.80;99.90;;;;;;5042002;28;20444;-80
2022/05/12 08:40:59;;;;;;;0.60;0.10;;;19.80;99.90;;;;;;5037903;28;20553;-79
2022/05/12 08:43:36;;;;;;;0.60;0.10;;;19.30;99.90;;;;;;5039472;28;20448;-80
2022/05/12 08:46:08;;;;;;;0.67;0.20;;;20.20;99.90;;;;;;5039393;28;20462;-80
2022/05/12 08:48:41;;;;;;;0.70;0.20;;;20.40;99.90;;;;;;5038967;28;20553;-80
2022/05/12 08:51:13;;;;;;;0.70;0.10;;;20.40;99.90;;;;;;5039876;28;20452;-81
2022/05/12 08:53:46;;;;;;;0.60;0.10;;;20.30;99.90;;;;;;5044368;28;20843;-81
2022/05/12 08:56:15;;;;;;;0.70;0.20;;;20.30;99.90;;;;;;5044536;28;20468;-80
2022/05/12 08:58:45;;;;;;;0.70;0.20;;;20.20;99.90;;;;;;5048569;28;20484;-81
2022/05/12 09:01:20;;;;;;;0.77;0.23;;;20.30;99.90;;;;;;5046596;28;20963;-81
2022/05/12 09:04:02;;;;;;;0.80;0.33;;;20.30;99.90;;;;;;5045234;28;20521;-81
2022/05/12 09:06:35;;;;;;;0.70;0.30;;;20.20;99.90;;;;;;5039634;28;20442;-80
2022/05/12 09:09:10;;;;;;;0.70;0.10;;;20.20;99.90;;;;;;5040266;28;20467;-80
2022/05/12 09:11:44;;;;;;;0.70;0.20;;;20.20;99.90;;;;;;5039766;28;20465;-81
2022/05/12 09:14:18;;;;;;;1.37;0.27;;;20.30;99.90;;;;;;5039822;28;20949;-80
2022/05/12 09:16:51;;;;;;;0.60;0.10;;;20.40;99.90;;;;;;5040090;28;20504;-80
2022/05/12 09:19:19;;;;;;;0.80;0.43;;;20.40;99.90;;;;;;5039293;28;20500;-80
2022/05/12 09:21:49;;;;;;;0.70;0.20;;;20.60;99.90;;;;;;5039823;28;20916;-80
2022/05/12 09:24:16;;;;;;;0.70;0.27;;;20.50;99.90;;;;;;5039992;28;20522;-79
2022/05/12 09:26:46;;;;;;;0.70;0.20;;;20.60;99.90;;;;;;5059326;28;20443;-80
2022/05/12 09:29:20;;;;;;;0.90;0.70;;;20.50;99.90;;;;;;5079436;28;20466;-80
2022/05/12 09:31:51;;;;;;;0.80;0.47;;;20.50;99.90;;;;;;5086114;28;20515;-80
2022/05/12 09:34:31;;;;;;;0.70;0.30;;;20.60;99.90;;;;;;5084525;28;20443;-81
2022/05/12 09:37:15;;;;;;;0.70;0.20;;;20.60;99.90;;;;;;5084351;28;20461;-81
2022/05/12 09:39:46;;;;;;;0.67;0.20;;;20.90;99.90;;;;;;5087176;28;20516;-82
2022/05/12 09:42:36;;;;;;;1.10;0.40;;;20.90;99.90;;;;;;5088732;28;20428;-81
2022/05/12 09:45:08;;;;;;;0.70;0.20;;;21.20;99.90;;;;;;5086828;28;20421;-81
2022/05/12 09:47:37;;;;;;;1.70;0.80;;;21.10;99.90;;;;;;5083438;28;20494;-80
2022/05/12 09:50:16;;;;;;;1.50;0.40;;;21.20;99.90;;;;;;5085009;28;20529;-80
2022/05/12 09:52:46;;;;;;;0.80;0.30;;;21.30;99.90;;;;;;5087014;28;20463;-80
2022/05/12 09:55:20;;;;;;;0.70;0.30;;;21.30;99.90;;;;;;5086100;28;20514;-80
2022/05/12 09:57:53;;;;;;;0.70;0.20;;;21.30;99.90;;;;;;5084441;28;20482;-81
2022/05/12 10:00:41;;;;;;;0.70;0.10;;;21.30;99.90;;;;;;5082762;28;20465;-80
2022/05/12 10:09:09;;;;;;;0.70;0.20;;;21.10;99.90;;;;;;5084688;28;20516;-80
2022/05/12 10:11:44;;;;;;;0.70;0.10;;;21.40;99.90;;;;;;5085068;28;20567;-81
2022/05/12 10:14:32;;;;;;;0.70;0.10;;;21.70;99.90;;;;;;5086229;28;20455;-82
2022/05/12 10:17:06;;;;;;;0.70;0.20;;;21.80;99.90;;;;;;5088172;28;20459;-81
2022/05/12 10:19:37;;;;;;;0.80;0.47;;;22.10;99.90;;;;;;5090343;28;20471;-80
2022/05/12 10:22:14;;;;;;;0.70;0.20;;;22.00;99.90;;;;;;5081849;28;20517;-81
2022/05/12 10:25:04;;;;;;;1.00;0.30;;;21.80;99.90;;;;;;5081996;28;20455;-81
2022/05/12 10:27:43;;;;;;;0.70;0.10;;;21.70;99.90;;;;;;5080109;28;20420;-80
2022/05/12 10:30:26;;;;;;;0.70;0.10;;;22.00;99.90;;;;;;5080352;28;20495;-81
2022/05/12 10:33:11;;;;;;;0.70;0.20;;;22.10;99.90;;;;;;5081200;28;20426;-80
2022/05/12 10:35:43;;;;;;;0.70;0.20;;;22.20;99.90;;;;;;5083217;28;20437;-81
2022/05/12 10:38:20;;;;;;;1.60;0.33;;;22.10;99.90;;;;;;5087124;28;20429;-79
2022/05/12 10:40:53;;;;;;;0.70;0.20;;;22.00;99.90;;;;;;5081500;28;21072;-81
2022/05/12 10:43:42;;;;;;;3.37;0.80;;;22.00;99.90;;;;;;5081820;28;20527;-80
2022/05/12 10:46:16;;;;;;;0.70;0.20;;;22.10;99.90;;;;;;5080702;28;20447;-82
2022/05/12 10:48:55;;;;;;;0.70;0.20;;;22.30;99.90;;;;;;5080490;28;20484;-80
2022/05/12 10:51:34;;;;;;;0.90;0.50;;;22.30;99.90;;;;;;5080716;28;20518;-80
2022/05/12 10:54:21;;;;;;;0.70;0.23;;;22.30;99.90;;;;;;5081928;28;20483;-81
2022/05/12 10:57:08;;;;;;;0.70;0.10;;;22.30;99.90;;;;;;5087716;28;20432;-80
2022/05/12 11:00:08;;;;;;;0.70;0.20;;;22.30;99.90;;;;;;5093237;28;21031;-80
2022/05/12 11:02:42;;;;;;;0.70;0.10;;;22.60;99.90;;;;;;5086175;28;20446;-81
2022/05/12 11:05:26;;;;;;;0.70;0.20;;;23.10;99.90;;;;;;5081003;28;20437;-81
2022/05/12 11:08:02;;;;;;;1.33;1.17;;;23.10;99.90;;;;;;5081908;28;20468;-80
2022/05/12 11:10:32;;;;;;;0.70;0.10;;;23.10;99.90;;;;;;5081558;28;20535;-81
2022/05/12 11:13:05;;;;;;;0.70;0.20;;;23.20;99.90;;;;;;5083581;28;20453;-81
2022/05/12 11:15:50;;;;;;;1.23;0.27;;;23.40;99.90;;;;;;5083106;28;20446;-80
2022/05/12 11:18:25;;;;;;;0.93;0.40;;;;;;;;;;5086357;28;20552;-82
2022/05/12 11:21:02;;;;;;;0.70;0.30;;;23.40;99.90;;;;;;5089431;28;20492;-80
2022/05/12 11:23:42;;;;;;;0.80;0.30;;;23.40;99.90;;;;;;5085333;28;20449;-81
2022/05/12 11:26:19;;;;;;;0.70;0.20;;;23.10;99.90;;;;;;5085605;28;20460;-80
2022/05/12 11:31:48;;;;;;;0.80;0.47;;;23.30;99.90;;;;;;5070012;28;20512;-81
2022/05/12 11:34:20;;;;;;;0.80;0.30;;;23.10;99.90;;;;;;5064913;28;20450;-81
2022/05/12 11:36:51;;;;;;;2.90;0.67;;;23.00;99.90;;;;;;5066598;28;20461;-81
2022/05/12 11:39:30;;;;;;;0.70;0.20;;;23.00;99.90;;;;;;5067831;28;20470;-81
2022/05/12 11:42:14;;;;;;;0.70;0.10;;;23.20;99.90;;;;;;5069276;28;20438;-81
2022/05/12 11:44:55;;;;;;;1.90;0.40;;;23.30;99.90;;;;;;5067724;28;20457;-81
2022/05/12 11:48:03;;;;;;;0.70;0.20;;;23.50;99.90;;;;;;5070375;28;20577;-81
2022/05/12 11:50:47;;;;;;;0.70;0.10;;;23.80;99.90;;;;;;5074002;28;20482;-81
2022/05/12 11:53:20;;;;;;;4.50;3.60;;;23.90;99.90;;;;;;5072042;28;20457;-82
2022/05/12 11:56:01;;;;;;;0.70;0.10;;;23.90;99.90;;;;;;5071619;28;20454;-81
2022/05/12 11:58:40;;;;;;;1.27;0.40;;;23.80;99.90;;;;;;5071621;28;20489;-82
2022/05/12 12:01:11;;;;;;;0.70;0.20;;;23.70;99.90;;;;;;5073489;28;20611;-80
2022/05/12 12:03:49;;;;;;;0.70;0.20;;;23.60;99.90;;;;;;5075195;28;20482;-82
2022/05/12 12:06:38;;;;;;;0.70;0.20;;;23.30;99.90;;;;;;5076704;28;20442;-80
2022/05/12 12:09:50;;;;;;;0.70;0.20;;;23.50;99.90;;;;;;5076119;28;20500;-81
2022/05/12 12:12:56;;;;;;;0.70;0.20;;;23.60;99.90;;;;;;5056206;28;20568;-80
2022/05/12 12:15:43;;;;;;;0.80;0.20;;;23.80;99.90;;;;;;5065782;28;20473;-81
2022/05/12 12:18:49;;;;;;;0.80;0.30;;;24.00;99.90;;;;;;5071467;28;20438;-79
2022/05/12 12:21:54;;;;;;;0.70;0.20;;;23.90;99.90;;;;;;5071300;28;20443;-81
2022/05/12 12:25:06;;;;;;;0.70;0.10;;;23.90;99.90;;;;;;5068875;28;20461;-80
2022/05/12 12:28:00;;;;;;;0.70;0.20;;;23.90;99.90;;;;;;5081291;28;20464;-81
2022/05/12 12:30:38;;;;;;;0.70;0.20;;;23.90;99.90;;;;;;5091796;28;20984;-80
2022/05/12 12:33:13;;;;;;;0.80;0.40;;;24.20;99.90;;;;;;5091166;28;20421;-81
2022/05/12 12:35:55;;;;;;;1.10;0.30;;;24.30;99.90;;;;;;5085665;28;20461;-80
2022/05/12 12:39:04;;;;;;;0.70;0.10;;;24.40;99.90;;;;;;5083518;28;20465;-81
2022/05/12 12:41:38;;;;;;;0.70;0.10;;;24.30;99.90;;;;;;5082666;28;20593;-80
2022/05/12 12:44:17;;;;;;;1.20;0.30;;;24.40;99.90;;;;;;5081001;28;20425;-81
2022/05/12 12:46:53;;;;;;;1.77;0.30;;;24.40;99.90;;;;;;5082039;28;20699;-81
2022/05/12 12:49:26;;;;;;;1.20;0.53;;;24.20;99.90;;;;;;5080187;28;20469;-80
2022/05/12 12:51:57;;;;;;;1.30;0.60;;;24.30;99.90;;;;;;5080411;28;20487;-81
2022/05/12 12:57:25;;;;;;;0.70;0.20;;;24.30;99.90;;;;;;5080736;28;20497;-81
2022/05/12 12:59:58;;;;;;;0.70;0.20;;;24.20;99.90;;;;;;5085166;28;20520;-79
2022/05/12 13:02:30;;;;;;;0.70;0.40;;;24.00;99.90;;;;;;5085729;28;20402;-80
2022/05/12 13:05:04;;;;;;;0.70;0.20;;;24.20;99.90;;;;;;5086505;28;20445;-80
2022/05/12 13:07:35;;;;;;;3.80;0.40;;;24.20;99.90;;;;;;5085918;28;20481;-82
2022/05/12 13:10:11;;;;;;;0.70;0.40;;;23.80;99.90;;;;;;5088356;28;20468;-81
2022/05/12 13:12:39;;;;;;;0.80;0.27;;;23.70;99.90;;;;;;5086948;28;20502;-82
2022/05/12 13:15:18;;;;;;;0.90;0.30;;;24.00;99.90;;;;;;5088830;28;20525;-80
2022/05/12 13:17:49;;;;;;;0.70;0.20;;;23.90;99.90;;;;;;5090670;28;20437;-80
2022/05/12 13:20:24;;;;;;;0.70;0.20;;;23.90;99.90;;;;;;5090059;28;20469;-81
2022/05/12 13:22:55;;;;;;;3.07;0.50;;;24.00;99.90;;;;;;5090436;28;20450;-80
2022/05/12 13:25:25;;;;;;;0.70;0.20;;;24.30;99.90;;;;;;5091313;28;20450;-82
2022/05/12 13:27:54;;;;;;;0.70;0.20;;;24.40;99.90;;;;;;5090871;28;20445;-81
2022/05/12 13:30:36;;;;;;;0.70;0.20;;;24.50;99.90;;;;;;5080801;28;20469;-81
2022/05/12 13:33:09;;;;;;;1.53;0.77;;;24.50;99.90;;;;;;5080907;28;20507;-81
2022/05/12 13:35:37;;;;;;;0.80;0.30;;;24.60;99.90;;;;;;5078683;28;20469;-80
2022/05/12 13:38:08;;;;;;;1.17;0.30;;;24.00;99.90;;;;;;5079111;28;20456;-81
2022/05/12 13:40:58;;;;;;;0.70;0.20;;;24.10;99.90;;;;;;5080668;28;20507;-80